sensor_id;sensor_type;location;lat;lon;timestamp;P1;durP1;ratioP1;P2;durP2;ratioP2
71513;SDS011;59335;46.652;21.272;2022-07-19T00:02:33;12.90;;;7.70;;
71513;SDS011;59335;46.652;21.272;2022-07-19T00:05:36;15.60;;;8.32;;
71513;SDS011;59335;46.652;21.272;2022-07-19T00:08:39;12.25;;;7.40;;
71513;SDS011;59335;46.652;21.272;2022-07-19T00:11:42;13.10;;;7.70;;
71513;SDS011;59335;46.652;21.272;2022-07-19T00:14:44;13.00;;;7.55;;
71513;SDS011;59335;46.652;21.272;2022-07-19T00:17:47;13.43;;;7.57;;
71513;SDS011;59335;46.652;21.272;2022-07-19T00:20:51;10.32;;;7.22;;
71513;SDS011;59335;46.652;21.272;2022-07-19T00:23:54;11.80;;;7.63;;
71513;SDS011;59335;46.652;21.272;2022-07-19T00:26:56;12.35;;;7.30;;
71513;SDS011;59335;46.652;21.272;2022-07-19T00:29:59;13.35;;;7.53;;
71513;SDS011;59335;46.652;21.272;2022-07-19T00:33:02;11.87;;;7.10;;
71513;SDS011;59335;46.652;21.272;2022-07-19T00:36:10;11.45;;;6.82;;
71513;SDS011;59335;46.652;21.272;2022-07-19T00:39:13;11.93;;;7.28;;
71513;SDS011;59335;46.652;21.272;2022-07-19T00:42:17;12.02;;;6.97;;
71513;SDS011;59335;46.652;21.272;2022-07-19T00:45:20;12.95;;;7.00;;
71513;SDS011;59335;46.652;21.272;2022-07-19T00:48:23;12.43;;;7.47;;
71513;SDS011;59335;46.652;21.272;2022-07-19T00:51:26;10.60;;;6.53;;
71513;SDS011;59335;46.652;21.272;2022-07-19T00:54:30;11.57;;;6.85;;
71513;SDS011;59335;46.652;21.272;2022-07-19T00:57:36;11.60;;;6.85;;
71513;SDS011;59335;46.652;21.272;2022-07-19T01:00:42;11.35;;;6.68;;
71513;SDS011;59335;46.652;21.272;2022-07-19T01:03:46;10.67;;;6.77;;
71513;SDS011;59335;46.652;21.272;2022-07-19T01:06:49;10.05;;;6.20;;
71513;SDS011;59335;46.652;21.272;2022-07-19T01:09:52;9.95;;;6.50;;
71513;SDS011;59335;46.652;21.272;2022-07-19T01:12:55;11.18;;;6.47;;
71513;SDS011;59335;46.652;21.272;2022-07-19T01:15:58;11.68;;;6.82;;
71513;SDS011;59335;46.652;21.272;2022-07-19T01:19:03;14.50;;;7.33;;
71513;SDS011;59335;46.652;21.272;2022-07-19T01:22:07;10.88;;;6.97;;
71513;SDS011;59335;46.652;21.272;2022-07-19T01:25:10;12.48;;;7.10;;
71513;SDS011;59335;46.652;21.272;2022-07-19T01:28:14;11.50;;;7.30;;
71513;SDS011;59335;46.652;21.272;2022-07-19T01:31:16;12.80;;;7.03;;
71513;SDS011;59335;46.652;21.272;2022-07-19T01:34:19;11.50;;;6.90;;
71513;SDS011;59335;46.652;21.272;2022-07-19T01:37:22;11.98;;;7.25;;
71513;SDS011;59335;46.652;21.272;2022-07-19T01:40:25;11.25;;;7.03;;
71513;SDS011;59335;46.652;21.272;2022-07-19T01:43:28;11.10;;;6.45;;
71513;SDS011;59335;46.652;21.272;2022-07-19T01:46:31;11.30;;;6.75;;
71513;SDS011;59335;46.652;21.272;2022-07-19T01:49:34;10.67;;;6.80;;
71513;SDS011;59335;46.652;21.272;2022-07-19T01:52:37;11.50;;;6.95;;
71513;SDS011;59335;46.652;21.272;2022-07-19T01:55:43;11.77;;;7.28;;
71513;SDS011;59335;46.652;21.272;2022-07-19T01:58:46;11.57;;;7.05;;
71513;SDS011;59335;46.652;21.272;2022-07-19T02:01:49;11.13;;;6.85;;
71513;SDS011;59335;46.652;21.272;2022-07-19T02:04:52;11.50;;;6.53;;
71513;SDS011;59335;46.652;21.272;2022-07-19T02:07:54;9.95;;;6.35;;
71513;SDS011;59335;46.652;21.272;2022-07-19T02:10:57;11.07;;;7.00;;
71513;SDS011;59335;46.652;21.272;2022-07-19T02:14:02;11.70;;;6.82;;
71513;SDS011;59335;46.652;21.272;2022-07-19T02:17:09;10.57;;;6.75;;
71513;SDS011;59335;46.652;21.272;2022-07-19T02:20:12;12.50;;;6.63;;
71513;SDS011;59335;46.652;21.272;2022-07-19T02:23:15;10.25;;;6.60;;
71513;SDS011;59335;46.652;21.272;2022-07-19T02:26:17;11.20;;;7.20;;
71513;SDS011;59335;46.652;21.272;2022-07-19T02:29:20;10.52;;;6.55;;
71513;SDS011;59335;46.652;21.272;2022-07-19T02:32:23;12.02;;;7.40;;
71513;SDS011;59335;46.652;21.272;2022-07-19T02:35:26;9.83;;;6.60;;
71513;SDS011;59335;46.652;21.272;2022-07-19T02:38:28;11.68;;;6.85;;
71513;SDS011;59335;46.652;21.272;2022-07-19T02:41:31;11.30;;;6.75;;
71513;SDS011;59335;46.652;21.272;2022-07-19T02:44:34;11.30;;;6.75;;
71513;SDS011;59335;46.652;21.272;2022-07-19T02:47:37;12.90;;;6.80;;
71513;SDS011;59335;46.652;21.272;2022-07-19T02:50:40;10.90;;;6.60;;
71513;SDS011;59335;46.652;21.272;2022-07-19T02:53:43;10.60;;;6.47;;
71513;SDS011;59335;46.652;21.272;2022-07-19T02:56:46;9.80;;;5.72;;
71513;SDS011;59335;46.652;21.272;2022-07-19T02:59:49;11.75;;;5.97;;
71513;SDS011;59335;46.652;21.272;2022-07-19T03:02:52;9.07;;;5.18;;
71513;SDS011;59335;46.652;21.272;2022-07-19T03:05:55;9.73;;;4.50;;
71513;SDS011;59335;46.652;21.272;2022-07-19T03:08:58;7.75;;;3.70;;
71513;SDS011;59335;46.652;21.272;2022-07-19T03:12:01;7.40;;;3.63;;
71513;SDS011;59335;46.652;21.272;2022-07-19T03:15:03;7.00;;;3.50;;
71513;SDS011;59335;46.652;21.272;2022-07-19T03:18:06;9.77;;;3.10;;
71513;SDS011;59335;46.652;21.272;2022-07-19T03:21:09;8.23;;;2.37;;
71513;SDS011;59335;46.652;21.272;2022-07-19T03:24:12;7.15;;;2.22;;
71513;SDS011;59335;46.652;21.272;2022-07-19T03:27:14;7.75;;;2.47;;
71513;SDS011;59335;46.652;21.272;2022-07-19T03:30:17;7.00;;;2.08;;
71513;SDS011;59335;46.652;21.272;2022-07-19T03:33:20;8.13;;;2.42;;
71513;SDS011;59335;46.652;21.272;2022-07-19T03:36:23;10.57;;;2.50;;
71513;SDS011;59335;46.652;21.272;2022-07-19T03:39:25;12.25;;;2.85;;
71513;SDS011;59335;46.652;21.272;2022-07-19T03:42:28;6.75;;;3.20;;
71513;SDS011;59335;46.652;21.272;2022-07-19T03:45:31;7.57;;;2.83;;
71513;SDS011;59335;46.652;21.272;2022-07-19T03:48:33;9.90;;;3.25;;
71513;SDS011;59335;46.652;21.272;2022-07-19T03:51:36;14.73;;;4.40;;
71513;SDS011;59335;46.652;21.272;2022-07-19T03:54:39;10.70;;;5.60;;
71513;SDS011;59335;46.652;21.272;2022-07-19T03:57:42;17.27;;;7.57;;
71513;SDS011;59335;46.652;21.272;2022-07-19T04:00:45;14.52;;;7.68;;
71513;SDS011;59335;46.652;21.272;2022-07-19T04:03:47;13.82;;;7.45;;
71513;SDS011;59335;46.652;21.272;2022-07-19T04:06:51;14.73;;;7.80;;
71513;SDS011;59335;46.652;21.272;2022-07-19T04:09:54;17.70;;;8.52;;
71513;SDS011;59335;46.652;21.272;2022-07-19T04:12:56;16.33;;;8.38;;
71513;SDS011;59335;46.652;21.272;2022-07-19T04:15:59;12.07;;;7.20;;
71513;SDS011;59335;46.652;21.272;2022-07-19T04:19:02;12.55;;;7.82;;
71513;SDS011;59335;46.652;21.272;2022-07-19T04:22:05;13.67;;;6.97;;
71513;SDS011;59335;46.652;21.272;2022-07-19T04:25:08;13.43;;;6.13;;
71513;SDS011;59335;46.652;21.272;2022-07-19T04:28:15;8.63;;;4.68;;
71513;SDS011;59335;46.652;21.272;2022-07-19T04:31:18;6.57;;;3.65;;
71513;SDS011;59335;46.652;21.272;2022-07-19T04:34:24;6.97;;;3.45;;
71513;SDS011;59335;46.652;21.272;2022-07-19T04:37:27;9.13;;;3.37;;
71513;SDS011;59335;46.652;21.272;2022-07-19T04:40:30;6.25;;;2.88;;
71513;SDS011;59335;46.652;21.272;2022-07-19T04:43:32;4.93;;;2.28;;
71513;SDS011;59335;46.652;21.272;2022-07-19T04:46:35;8.13;;;2.78;;
71513;SDS011;59335;46.652;21.272;2022-07-19T04:49:37;8.25;;;2.97;;
71513;SDS011;59335;46.652;21.272;2022-07-19T04:52:40;8.40;;;2.60;;
71513;SDS011;59335;46.652;21.272;2022-07-19T04:55:43;6.50;;;2.40;;
71513;SDS011;59335;46.652;21.272;2022-07-19T04:58:46;8.50;;;3.10;;
71513;SDS011;59335;46.652;21.272;2022-07-19T05:01:48;8.57;;;2.30;;
71513;SDS011;59335;46.652;21.272;2022-07-19T05:04:54;10.18;;;2.42;;
71513;SDS011;59335;46.652;21.272;2022-07-19T05:07:57;9.90;;;2.57;;
71513;SDS011;59335;46.652;21.272;2022-07-19T05:10:59;8.10;;;2.20;;
71513;SDS011;59335;46.652;21.272;2022-07-19T05:14:02;7.28;;;1.83;;
71513;SDS011;59335;46.652;21.272;2022-07-19T05:17:05;8.82;;;2.05;;
71513;SDS011;59335;46.652;21.272;2022-07-19T05:20:08;12.20;;;2.15;;
71513;SDS011;59335;46.652;21.272;2022-07-19T05:23:11;10.63;;;2.47;;
71513;SDS011;59335;46.652;21.272;2022-07-19T05:26:13;10.43;;;2.10;;
71513;SDS011;59335;46.652;21.272;2022-07-19T05:29:16;10.57;;;2.95;;
71513;SDS011;59335;46.652;21.272;2022-07-19T05:32:19;6.80;;;2.22;;
71513;SDS011;59335;46.652;21.272;2022-07-19T05:35:21;6.28;;;2.13;;
71513;SDS011;59335;46.652;21.272;2022-07-19T05:38:24;7.67;;;2.07;;
71513;SDS011;59335;46.652;21.272;2022-07-19T05:41:27;8.93;;;2.30;;
71513;SDS011;59335;46.652;21.272;2022-07-19T05:44:29;8.35;;;2.58;;
71513;SDS011;59335;46.652;21.272;2022-07-19T05:47:32;8.35;;;2.40;;
71513;SDS011;59335;46.652;21.272;2022-07-19T05:50:35;5.93;;;2.00;;
71513;SDS011;59335;46.652;21.272;2022-07-19T05:53:37;8.33;;;2.30;;
71513;SDS011;59335;46.652;21.272;2022-07-19T05:56:41;7.18;;;2.00;;
71513;SDS011;59335;46.652;21.272;2022-07-19T05:59:44;8.18;;;2.42;;
71513;SDS011;59335;46.652;21.272;2022-07-19T06:02:47;6.13;;;2.10;;
71513;SDS011;59335;46.652;21.272;2022-07-19T06:05:49;6.93;;;2.40;;
71513;SDS011;59335;46.652;21.272;2022-07-19T06:08:52;6.43;;;1.80;;
71513;SDS011;59335;46.652;21.272;2022-07-19T06:11:54;6.68;;;1.98;;
71513;SDS011;59335;46.652;21.272;2022-07-19T06:14:57;4.43;;;1.70;;
71513;SDS011;59335;46.652;21.272;2022-07-19T06:18:00;4.88;;;1.60;;
71513;SDS011;59335;46.652;21.272;2022-07-19T06:21:09;7.45;;;2.00;;
71513;SDS011;59335;46.652;21.272;2022-07-19T06:24:14;4.93;;;1.90;;
71513;SDS011;59335;46.652;21.272;2022-07-19T06:27:16;5.78;;;1.88;;
71513;SDS011;59335;46.652;21.272;2022-07-19T06:30:19;5.20;;;2.05;;
71513;SDS011;59335;46.652;21.272;2022-07-19T06:33:22;4.20;;;1.90;;
71513;SDS011;59335;46.652;21.272;2022-07-19T06:36:25;6.75;;;1.90;;
71513;SDS011;59335;46.652;21.272;2022-07-19T06:39:29;4.60;;;1.97;;
71513;SDS011;59335;46.652;21.272;2022-07-19T06:42:33;6.60;;;1.90;;
71513;SDS011;59335;46.652;21.272;2022-07-19T06:45:36;6.90;;;2.33;;
71513;SDS011;59335;46.652;21.272;2022-07-19T06:48:39;6.55;;;2.03;;
71513;SDS011;59335;46.652;21.272;2022-07-19T06:51:42;5.38;;;1.95;;
71513;SDS011;59335;46.652;21.272;2022-07-19T06:54:45;5.47;;;2.20;;
71513;SDS011;59335;46.652;21.272;2022-07-19T06:57:47;7.22;;;2.30;;
71513;SDS011;59335;46.652;21.272;2022-07-19T07:00:50;6.35;;;2.25;;
71513;SDS011;59335;46.652;21.272;2022-07-19T07:03:54;5.90;;;2.35;;
71513;SDS011;59335;46.652;21.272;2022-07-19T07:06:57;7.90;;;2.47;;
71513;SDS011;59335;46.652;21.272;2022-07-19T07:10:00;5.90;;;2.10;;
71513;SDS011;59335;46.652;21.272;2022-07-19T07:13:11;4.72;;;2.08;;
71513;SDS011;59335;46.652;21.272;2022-07-19T07:16:14;5.80;;;2.17;;
71513;SDS011;59335;46.652;21.272;2022-07-19T07:19:16;4.70;;;1.90;;
71513;SDS011;59335;46.652;21.272;2022-07-19T07:22:19;5.57;;;2.45;;
71513;SDS011;59335;46.652;21.272;2022-07-19T07:25:22;7.73;;;2.10;;
71513;SDS011;59335;46.652;21.272;2022-07-19T07:28:24;6.25;;;2.47;;
71513;SDS011;59335;46.652;21.272;2022-07-19T07:31:27;6.05;;;2.25;;
71513;SDS011;59335;46.652;21.272;2022-07-19T07:34:30;4.90;;;2.40;;
71513;SDS011;59335;46.652;21.272;2022-07-19T07:37:38;8.52;;;2.70;;
71513;SDS011;59335;46.652;21.272;2022-07-19T07:40:41;7.60;;;2.17;;
71513;SDS011;59335;46.652;21.272;2022-07-19T07:43:44;5.95;;;2.05;;
71513;SDS011;59335;46.652;21.272;2022-07-19T07:46:47;6.78;;;2.10;;
71513;SDS011;59335;46.652;21.272;2022-07-19T07:49:50;5.70;;;2.08;;
71513;SDS011;59335;46.652;21.272;2022-07-19T07:52:52;5.85;;;2.03;;
71513;SDS011;59335;46.652;21.272;2022-07-19T07:55:55;4.67;;;2.00;;
71513;SDS011;59335;46.652;21.272;2022-07-19T07:59:05;6.28;;;2.33;;
71513;SDS011;59335;46.652;21.272;2022-07-19T08:02:08;4.95;;;2.17;;
71513;SDS011;59335;46.652;21.272;2022-07-19T08:05:11;5.60;;;2.50;;
71513;SDS011;59335;46.652;21.272;2022-07-19T08:08:15;5.10;;;2.45;;
71513;SDS011;59335;46.652;21.272;2022-07-19T08:11:18;6.77;;;2.30;;
71513;SDS011;59335;46.652;21.272;2022-07-19T08:14:21;5.13;;;2.42;;
71513;SDS011;59335;46.652;21.272;2022-07-19T08:17:23;7.85;;;3.10;;
71513;SDS011;59335;46.652;21.272;2022-07-19T08:20:27;6.32;;;2.17;;
71513;SDS011;59335;46.652;21.272;2022-07-19T08:23:29;5.57;;;2.28;;
71513;SDS011;59335;46.652;21.272;2022-07-19T08:26:32;7.63;;;2.90;;
71513;SDS011;59335;46.652;21.272;2022-07-19T08:29:34;5.72;;;2.60;;
71513;SDS011;59335;46.652;21.272;2022-07-19T08:32:37;6.75;;;2.70;;
71513;SDS011;59335;46.652;21.272;2022-07-19T08:35:41;6.13;;;2.53;;
71513;SDS011;59335;46.652;21.272;2022-07-19T08:38:44;6.15;;;2.20;;
71513;SDS011;59335;46.652;21.272;2022-07-19T08:41:48;9.77;;;2.70;;
71513;SDS011;59335;46.652;21.272;2022-07-19T08:44:52;8.30;;;2.55;;
71513;SDS011;59335;46.652;21.272;2022-07-19T08:47:55;6.10;;;2.40;;
71513;SDS011;59335;46.652;21.272;2022-07-19T08:51:00;5.45;;;2.10;;
71513;SDS011;59335;46.652;21.272;2022-07-19T08:54:04;6.97;;;2.85;;
71513;SDS011;59335;46.652;21.272;2022-07-19T08:57:07;5.57;;;2.00;;
71513;SDS011;59335;46.652;21.272;2022-07-19T09:00:29;6.10;;;2.10;;
71513;SDS011;59335;46.652;21.272;2022-07-19T09:03:34;5.10;;;2.30;;
71513;SDS011;59335;46.652;21.272;2022-07-19T09:06:45;6.60;;;2.25;;
71513;SDS011;59335;46.652;21.272;2022-07-19T09:09:50;5.97;;;2.30;;
71513;SDS011;59335;46.652;21.272;2022-07-19T09:13:03;5.10;;;1.97;;
71513;SDS011;59335;46.652;21.272;2022-07-19T09:16:17;5.63;;;2.10;;
71513;SDS011;59335;46.652;21.272;2022-07-19T09:19:21;4.82;;;2.17;;
71513;SDS011;59335;46.652;21.272;2022-07-19T09:22:24;5.82;;;1.92;;
71513;SDS011;59335;46.652;21.272;2022-07-19T09:25:35;5.00;;;2.22;;
71513;SDS011;59335;46.652;21.272;2022-07-19T09:28:48;5.07;;;2.00;;
71513;SDS011;59335;46.652;21.272;2022-07-19T09:35:33;5.10;;;1.85;;
71513;SDS011;59335;46.652;21.272;2022-07-19T09:38:38;5.75;;;2.17;;
71513;SDS011;59335;46.652;21.272;2022-07-19T09:41:54;4.80;;;2.20;;
71513;SDS011;59335;46.652;21.272;2022-07-19T09:44:58;4.97;;;2.20;;
71513;SDS011;59335;46.652;21.272;2022-07-19T09:48:02;6.32;;;2.03;;
71513;SDS011;59335;46.652;21.272;2022-07-19T09:51:06;4.43;;;2.00;;
71513;SDS011;59335;46.652;21.272;2022-07-19T09:54:09;3.78;;;1.70;;
71513;SDS011;59335;46.652;21.272;2022-07-19T09:57:13;5.40;;;2.33;;
71513;SDS011;59335;46.652;21.272;2022-07-19T10:00:19;5.23;;;2.07;;
71513;SDS011;59335;46.652;21.272;2022-07-19T10:03:24;4.65;;;1.88;;
71513;SDS011;59335;46.652;21.272;2022-07-19T10:06:27;5.78;;;2.30;;
71513;SDS011;59335;46.652;21.272;2022-07-19T10:09:30;4.00;;;1.90;;
71513;SDS011;59335;46.652;21.272;2022-07-19T10:12:34;4.53;;;1.88;;
71513;SDS011;59335;46.652;21.272;2022-07-19T10:15:40;5.37;;;2.20;;
71513;SDS011;59335;46.652;21.272;2022-07-19T10:19:13;5.07;;;1.77;;
71513;SDS011;59335;46.652;21.272;2022-07-19T10:22:19;5.47;;;1.88;;
71513;SDS011;59335;46.652;21.272;2022-07-19T10:25:36;4.28;;;1.70;;
71513;SDS011;59335;46.652;21.272;2022-07-19T10:28:41;5.25;;;1.98;;
71513;SDS011;59335;46.652;21.272;2022-07-19T10:32:04;5.40;;;1.80;;
71513;SDS011;59335;46.652;21.272;2022-07-19T10:38:23;5.40;;;1.80;;
71513;SDS011;59335;46.652;21.272;2022-07-19T10:41:26;5.55;;;1.83;;
71513;SDS011;59335;46.652;21.272;2022-07-19T10:44:29;5.45;;;1.70;;
71513;SDS011;59335;46.652;21.272;2022-07-19T10:51:10;5.10;;;2.13;;
71513;SDS011;59335;46.652;21.272;2022-07-19T10:54:05;4.15;;;1.80;;
71513;SDS011;59335;46.652;21.272;2022-07-19T10:57:08;4.28;;;1.90;;
71513;SDS011;59335;46.652;21.272;2022-07-19T11:00:16;5.85;;;1.80;;
71513;SDS011;59335;46.652;21.272;2022-07-19T11:06:26;5.75;;;2.10;;
71513;SDS011;59335;46.652;21.272;2022-07-19T11:09:48;5.28;;;2.33;;
71513;SDS011;59335;46.652;21.272;2022-07-19T11:12:54;3.75;;;1.70;;
71513;SDS011;59335;46.652;21.272;2022-07-19T11:15:58;3.45;;;1.83;;
71513;SDS011;59335;46.652;21.272;2022-07-19T11:19:02;3.63;;;1.80;;
71513;SDS011;59335;46.652;21.272;2022-07-19T11:22:08;4.25;;;1.85;;
71513;SDS011;59335;46.652;21.272;2022-07-19T11:25:12;4.65;;;2.13;;
71513;SDS011;59335;46.652;21.272;2022-07-19T11:28:24;4.40;;;1.75;;
71513;SDS011;59335;46.652;21.272;2022-07-19T11:31:28;4.95;;;1.90;;
71513;SDS011;59335;46.652;21.272;2022-07-19T11:34:30;4.50;;;1.77;;
71513;SDS011;59335;46.652;21.272;2022-07-19T11:37:35;4.22;;;1.80;;
71513;SDS011;59335;46.652;21.272;2022-07-19T11:40:40;4.80;;;2.08;;
71513;SDS011;59335;46.652;21.272;2022-07-19T11:43:44;4.15;;;1.70;;
71513;SDS011;59335;46.652;21.272;2022-07-19T11:46:57;3.33;;;1.75;;
71513;SDS011;59335;46.652;21.272;2022-07-19T11:50:06;3.80;;;1.97;;
71513;SDS011;59335;46.652;21.272;2022-07-19T11:53:10;6.03;;;1.88;;
71513;SDS011;59335;46.652;21.272;2022-07-19T11:56:26;4.20;;;2.10;;
71513;SDS011;59335;46.652;21.272;2022-07-19T11:59:29;4.10;;;2.00;;
71513;SDS011;59335;46.652;21.272;2022-07-19T12:06:07;3.70;;;2.07;;
71513;SDS011;59335;46.652;21.272;2022-07-19T12:09:13;4.32;;;2.20;;
71513;SDS011;59335;46.652;21.272;2022-07-19T12:12:21;4.50;;;1.83;;
71513;SDS011;59335;46.652;21.272;2022-07-19T12:15:23;4.97;;;1.92;;
71513;SDS011;59335;46.652;21.272;2022-07-19T12:22:01;5.57;;;1.90;;
71513;SDS011;59335;46.652;21.272;2022-07-19T12:25:05;3.35;;;1.58;;
71513;SDS011;59335;46.652;21.272;2022-07-19T12:28:09;4.57;;;1.92;;
71513;SDS011;59335;46.652;21.272;2022-07-19T12:31:12;3.72;;;1.77;;
71513;SDS011;59335;46.652;21.272;2022-07-19T12:34:15;4.00;;;1.80;;
71513;SDS011;59335;46.652;21.272;2022-07-19T12:40:25;4.43;;;1.88;;
71513;SDS011;59335;46.652;21.272;2022-07-19T12:43:28;4.60;;;1.88;;
71513;SDS011;59335;46.652;21.272;2022-07-19T12:46:31;4.55;;;1.88;;
71513;SDS011;59335;46.652;21.272;2022-07-19T12:49:42;4.50;;;1.95;;
71513;SDS011;59335;46.652;21.272;2022-07-19T12:52:46;4.07;;;1.80;;
71513;SDS011;59335;46.652;21.272;2022-07-19T12:55:49;3.47;;;1.90;;
71513;SDS011;59335;46.652;21.272;2022-07-19T12:58:52;3.55;;;1.77;;
71513;SDS011;59335;46.652;21.272;2022-07-19T13:02:13;4.40;;;1.90;;
71513;SDS011;59335;46.652;21.272;2022-07-19T13:05:17;3.75;;;2.00;;
71513;SDS011;59335;46.652;21.272;2022-07-19T13:08:21;3.90;;;1.70;;
71513;SDS011;59335;46.652;21.272;2022-07-19T13:11:24;3.47;;;1.90;;
71513;SDS011;59335;46.652;21.272;2022-07-19T13:14:29;4.18;;;2.00;;
71513;SDS011;59335;46.652;21.272;2022-07-19T13:17:32;4.20;;;1.92;;
71513;SDS011;59335;46.652;21.272;2022-07-19T13:20:35;4.45;;;2.00;;
71513;SDS011;59335;46.652;21.272;2022-07-19T13:23:37;4.07;;;1.83;;
71513;SDS011;59335;46.652;21.272;2022-07-19T13:26:40;5.20;;;2.00;;
71513;SDS011;59335;46.652;21.272;2022-07-19T13:29:43;3.40;;;1.73;;
71513;SDS011;59335;46.652;21.272;2022-07-19T13:32:47;4.43;;;2.00;;
71513;SDS011;59335;46.652;21.272;2022-07-19T13:35:50;4.72;;;2.33;;
71513;SDS011;59335;46.652;21.272;2022-07-19T13:39:00;4.60;;;1.90;;
71513;SDS011;59335;46.652;21.272;2022-07-19T13:42:03;3.33;;;1.60;;
71513;SDS011;59335;46.652;21.272;2022-07-19T13:45:06;3.40;;;2.03;;
71513;SDS011;59335;46.652;21.272;2022-07-19T13:48:10;3.90;;;1.98;;
71513;SDS011;59335;46.652;21.272;2022-07-19T13:51:12;4.75;;;1.75;;
71513;SDS011;59335;46.652;21.272;2022-07-19T13:54:15;3.43;;;1.60;;
71513;SDS011;59335;46.652;21.272;2022-07-19T13:57:18;4.03;;;2.03;;
71513;SDS011;59335;46.652;21.272;2022-07-19T14:00:21;4.30;;;1.75;;
71513;SDS011;59335;46.652;21.272;2022-07-19T14:03:25;6.10;;;2.05;;
71513;SDS011;59335;46.652;21.272;2022-07-19T14:06:28;3.75;;;2.00;;
71513;SDS011;59335;46.652;21.272;2022-07-19T14:09:31;3.97;;;1.77;;
71513;SDS011;59335;46.652;21.272;2022-07-19T14:12:36;5.43;;;1.90;;
71513;SDS011;59335;46.652;21.272;2022-07-19T14:15:39;4.15;;;1.70;;
71513;SDS011;59335;46.652;21.272;2022-07-19T14:18:42;4.13;;;2.00;;
71513;SDS011;59335;46.652;21.272;2022-07-19T14:21:45;4.60;;;2.25;;
71513;SDS011;59335;46.652;21.272;2022-07-19T14:24:48;4.97;;;1.90;;
71513;SDS011;59335;46.652;21.272;2022-07-19T14:27:51;4.32;;;1.83;;
71513;SDS011;59335;46.652;21.272;2022-07-19T14:30:53;4.43;;;1.92;;
71513;SDS011;59335;46.652;21.272;2022-07-19T14:33:56;3.92;;;2.00;;
71513;SDS011;59335;46.652;21.272;2022-07-19T14:37:19;4.90;;;2.10;;
71513;SDS011;59335;46.652;21.272;2022-07-19T14:40:29;3.40;;;1.70;;
71513;SDS011;59335;46.652;21.272;2022-07-19T14:43:32;4.35;;;2.10;;
71513;SDS011;59335;46.652;21.272;2022-07-19T14:46:35;3.97;;;1.90;;
71513;SDS011;59335;46.652;21.272;2022-07-19T14:49:38;3.40;;;1.90;;
71513;SDS011;59335;46.652;21.272;2022-07-19T14:52:40;5.13;;;2.40;;
71513;SDS011;59335;46.652;21.272;2022-07-19T14:55:43;3.47;;;1.60;;
71513;SDS011;59335;46.652;21.272;2022-07-19T14:58:46;3.30;;;1.75;;
71513;SDS011;59335;46.652;21.272;2022-07-19T15:01:50;3.83;;;1.77;;
71513;SDS011;59335;46.652;21.272;2022-07-19T15:04:54;4.00;;;1.98;;
71513;SDS011;59335;46.652;21.272;2022-07-19T15:07:59;4.22;;;1.70;;
71513;SDS011;59335;46.652;21.272;2022-07-19T15:11:02;4.17;;;2.00;;
71513;SDS011;59335;46.652;21.272;2022-07-19T15:14:05;4.07;;;1.95;;
71513;SDS011;59335;46.652;21.272;2022-07-19T15:17:08;3.25;;;1.90;;
71513;SDS011;59335;46.652;21.272;2022-07-19T15:20:10;3.17;;;1.67;;
71513;SDS011;59335;46.652;21.272;2022-07-19T15:23:14;3.88;;;2.20;;
71513;SDS011;59335;46.652;21.272;2022-07-19T15:26:17;3.83;;;2.07;;
71513;SDS011;59335;46.652;21.272;2022-07-19T15:29:19;4.75;;;1.85;;
71513;SDS011;59335;46.652;21.272;2022-07-19T15:32:22;3.92;;;1.90;;
71513;SDS011;59335;46.652;21.272;2022-07-19T15:35:25;3.55;;;2.00;;
71513;SDS011;59335;46.652;21.272;2022-07-19T15:38:28;4.07;;;2.00;;
71513;SDS011;59335;46.652;21.272;2022-07-19T15:41:31;3.40;;;1.80;;
71513;SDS011;59335;46.652;21.272;2022-07-19T15:44:33;4.35;;;1.85;;
71513;SDS011;59335;46.652;21.272;2022-07-19T15:47:36;3.58;;;2.20;;
71513;SDS011;59335;46.652;21.272;2022-07-19T15:50:39;3.83;;;2.13;;
71513;SDS011;59335;46.652;21.272;2022-07-19T15:53:42;5.00;;;2.15;;
71513;SDS011;59335;46.652;21.272;2022-07-19T15:56:46;3.53;;;1.60;;
71513;SDS011;59335;46.652;21.272;2022-07-19T15:59:48;3.65;;;1.77;;
71513;SDS011;59335;46.652;21.272;2022-07-19T16:02:51;4.47;;;1.90;;
71513;SDS011;59335;46.652;21.272;2022-07-19T16:05:54;4.50;;;2.10;;
71513;SDS011;59335;46.652;21.272;2022-07-19T16:08:57;3.78;;;2.03;;
71513;SDS011;59335;46.652;21.272;2022-07-19T16:12:04;3.77;;;1.90;;
71513;SDS011;59335;46.652;21.272;2022-07-19T16:15:07;3.58;;;1.77;;
71513;SDS011;59335;46.652;21.272;2022-07-19T16:18:11;4.32;;;2.10;;
71513;SDS011;59335;46.652;21.272;2022-07-19T16:21:14;3.45;;;1.83;;
71513;SDS011;59335;46.652;21.272;2022-07-19T16:24:16;4.03;;;1.90;;
71513;SDS011;59335;46.652;21.272;2022-07-19T16:27:19;3.90;;;1.73;;
71513;SDS011;59335;46.652;21.272;2022-07-19T16:30:24;3.65;;;1.98;;
71513;SDS011;59335;46.652;21.272;2022-07-19T16:33:27;4.18;;;1.92;;
71513;SDS011;59335;46.652;21.272;2022-07-19T16:36:31;4.53;;;1.80;;
71513;SDS011;59335;46.652;21.272;2022-07-19T16:39:35;3.13;;;1.75;;
71513;SDS011;59335;46.652;21.272;2022-07-19T16:42:41;4.63;;;2.00;;
71513;SDS011;59335;46.652;21.272;2022-07-19T16:46:03;4.43;;;2.00;;
71513;SDS011;59335;46.652;21.272;2022-07-19T16:49:10;5.38;;;2.20;;
71513;SDS011;59335;46.652;21.272;2022-07-19T16:52:13;4.15;;;2.08;;
71513;SDS011;59335;46.652;21.272;2022-07-19T16:55:16;4.05;;;1.88;;
71513;SDS011;59335;46.652;21.272;2022-07-19T16:58:18;3.50;;;1.73;;
71513;SDS011;59335;46.652;21.272;2022-07-19T17:01:21;3.55;;;1.95;;
71513;SDS011;59335;46.652;21.272;2022-07-19T17:04:24;3.42;;;1.75;;
71513;SDS011;59335;46.652;21.272;2022-07-19T17:07:27;4.18;;;2.20;;
71513;SDS011;59335;46.652;21.272;2022-07-19T17:10:30;3.88;;;2.13;;
71513;SDS011;59335;46.652;21.272;2022-07-19T17:13:36;4.50;;;1.90;;
71513;SDS011;59335;46.652;21.272;2022-07-19T17:16:39;3.55;;;1.70;;
71513;SDS011;59335;46.652;21.272;2022-07-19T17:19:43;4.15;;;1.80;;
71513;SDS011;59335;46.652;21.272;2022-07-19T17:22:46;3.95;;;2.05;;
71513;SDS011;59335;46.652;21.272;2022-07-19T17:25:48;3.05;;;1.67;;
71513;SDS011;59335;46.652;21.272;2022-07-19T17:28:52;5.40;;;2.30;;
71513;SDS011;59335;46.652;21.272;2022-07-19T17:31:55;4.38;;;2.08;;
71513;SDS011;59335;46.652;21.272;2022-07-19T17:34:57;3.35;;;1.90;;
71513;SDS011;59335;46.652;21.272;2022-07-19T17:38:00;4.18;;;1.83;;
71513;SDS011;59335;46.652;21.272;2022-07-19T17:41:06;3.50;;;1.77;;
71513;SDS011;59335;46.652;21.272;2022-07-19T17:44:10;3.90;;;2.00;;
71513;SDS011;59335;46.652;21.272;2022-07-19T17:47:13;3.72;;;1.73;;
71513;SDS011;59335;46.652;21.272;2022-07-19T17:50:16;4.75;;;1.95;;
71513;SDS011;59335;46.652;21.272;2022-07-19T17:53:19;3.83;;;2.10;;
71513;SDS011;59335;46.652;21.272;2022-07-19T17:56:22;4.05;;;2.10;;
71513;SDS011;59335;46.652;21.272;2022-07-19T17:59:25;3.80;;;1.80;;
71513;SDS011;59335;46.652;21.272;2022-07-19T18:02:28;4.22;;;2.08;;
71513;SDS011;59335;46.652;21.272;2022-07-19T18:05:51;4.22;;;2.25;;
71513;SDS011;59335;46.652;21.272;2022-07-19T18:08:53;5.00;;;2.35;;
71513;SDS011;59335;46.652;21.272;2022-07-19T18:11:57;5.40;;;2.33;;
71513;SDS011;59335;46.652;21.272;2022-07-19T18:15:00;5.30;;;2.50;;
71513;SDS011;59335;46.652;21.272;2022-07-19T18:18:03;4.07;;;1.98;;
71513;SDS011;59335;46.652;21.272;2022-07-19T18:21:06;5.32;;;2.70;;
71513;SDS011;59335;46.652;21.272;2022-07-19T18:24:09;3.95;;;2.00;;
71513;SDS011;59335;46.652;21.272;2022-07-19T18:27:12;3.97;;;1.90;;
71513;SDS011;59335;46.652;21.272;2022-07-19T18:30:15;4.60;;;2.10;;
71513;SDS011;59335;46.652;21.272;2022-07-19T18:33:18;4.45;;;1.90;;